Time,TemperatureF,DewpointF,PressureIn,WindDirection,WindDirectionDegrees,WindSpeedMPH,WindSpeedGustMPH,Humidity,HourlyPrecipIn,Conditions,Clouds,dailyrainin,SoftwareType,DateUTC
2013-12-04 00:14:00,23.5,21.0,30.33,NNE,24,4.0,7.0,89,0.00,,,0.00,weatherlink.com 1.10,2013-12-04 08:14:00,
2013-12-04 00:29:00,23.1,20.0,30.33,NNE,29,5.0,6.0,89,0.00,,,0.00,weatherlink.com 1.10,2013-12-04 08:29:00,
2013-12-04 00:49:00,22.9,20.0,30.33,NE,36,6.0,8.0,90,0.00,,,0.00,weatherlink.com 1.10,2013-12-04 08:49:00,
2013-12-04 00:59:00,22.9,20.0,30.33,NE,36,5.0,8.0,90,0.00,,,0.00,weatherlink.com 1.10,2013-12-04 08:59:00,
2013-12-04 01:14:00,22.9,20.0,30.34,NNE,20,2.0,6.0,89,0.00,,,0.00,weatherlink.com 1.10,2013-12-04 09:14:00,
2013-12-04 01:29:00,22.7,20.0,30.34,NNE,18,2.0,3.0,89,0.00,,,0.00,weatherlink.com 1.10,2013-12-04 09:29:00,
2013-12-04 01:44:00,22.2,20.0,30.33,NNE,29,3.0,5.0,90,0.00,,,0.00,weatherlink.com 1.10,2013-12-04 09:44:00,
2013-12-04 01:59:00,22.0,19.0,30.34,NNE,17,4.0,5.0,89,0.00,,,0.00,weatherlink.com 1.10,2013-12-04 09:59:00,
2013-12-04 02:14:00,21.9,19.0,30.34,NE,46,2.0,7.0,89,0.00,,,0.00,weatherlink.com 1.10,2013-12-04 10:14:00,
2013-12-04 02:29:00,21.6,19.0,30.34,NE,40,6.0,8.0,90,0.00,,,0.00,weatherlink.com 1.10,2013-12-04 10:29:00,
2013-12-04 02:44:00,21.5,19.0,30.34,NE,37,6.0,7.0,90,0.00,,,0.00,weatherlink.com 1.10,2013-12-04 10:44:00,
2013-12-04 02:59:00,21.1,19.0,30.35,NNE,28,3.0,7.0,91,0.00,,,0.00,weatherlink.com 1.10,2013-12-04 10:59:00,
2013-12-04 03:14:00,20.9,19.0,30.35,NE,40,8.0,8.0,91,0.00,,,0.00,weatherlink.com 1.10,2013-12-04 11:14:00,
2013-12-04 03:29:00,20.9,19.0,30.35,NE,48,5.0,8.0,91,0.00,,,0.00,weatherlink.com 1.10,2013-12-04 11:29:00,
2013-12-04 03:44:00,20.7,19.0,30.34,NE,34,6.0,9.0,91,0.00,,,0.00,weatherlink.com 1.10,2013-12-04 11:44:00,
2013-12-04 03:59:00,21.3,19.0,30.35,NE,48,5.0,8.0,91,0.00,,,0.00,weatherlink.com 1.10,2013-12-04 11:59:00,
2013-12-04 04:14:00,21.1,19.0,30.34,NE,34,7.0,9.0,90,0.00,,,0.00,weatherlink.com 1.10,2013-12-04 12:14:00,
2013-12-04 04:29:00,20.7,19.0,30.35,NNE,17,2.0,8.0,91,0.00,,,0.00,weatherlink.com 1.10,2013-12-04 12:29:00,
2013-12-04 04:44:00,20.6,19.0,30.35,NNE,26,6.0,9.0,92,0.00,,,0.00,weatherlink.com 1.10,2013-12-04 12:44:00,
2013-12-04 04:59:00,20.6,19.0,30.35,NE,51,8.0,10.0,92,0.00,,,0.00,weatherlink.com 1.10,2013-12-04 12:59:00,
2013-12-04 05:15:00,21.2,19.0,30.35,NNE,30,4.0,8.0,92,0.00,,,0.00,weatherlink.com 1.10,2013-12-04 13:15:00,
2013-12-04 05:30:00,21.2,19.0,30.36,NE,36,4.0,8.0,90,0.00,,,0.00,weatherlink.com 1.10,2013-12-04 13:30:00,
2013-12-04 05:45:00,20.2,18.0,30.36,NE,35,4.0,7.0,90,0.00,,,0.00,weatherlink.com 1.10,2013-12-04 13:45:00,
2013-12-04 06:00:00,20.4,18.0,30.36,NE,41,7.0,8.0,91,0.00,,,0.00,weatherlink.com 1.10,2013-12-04 14:00:00,
2013-12-04 06:15:00,19.9,18.0,30.36,NE,39,4.0,8.0,91,0.00,,,0.00,weatherlink.com 1.10,2013-12-04 14:15:00,
2013-12-04 06:30:00,19.7,18.0,30.37,NE,45,8.0,9.0,91,0.00,,,0.00,weatherlink.com 1.10,2013-12-04 14:30:00,
2013-12-04 06:45:00,19.5,17.0,30.37,NNE,29,5.0,8.0,91,0.00,,,0.00,weatherlink.com 1.10,2013-12-04 14:45:00,
2013-12-04 07:00:00,19.7,18.0,30.38,NE,45,5.0,8.0,91,0.00,,,0.00,weatherlink.com 1.10,2013-12-04 15:00:00,
2013-12-04 07:15:00,19.2,17.0,30.38,NE,43,6.0,7.0,91,0.00,,,0.00,weatherlink.com 1.10,2013-12-04 15:15:00,
2013-12-04 07:30:00,19.1,17.0,30.38,NE,54,5.0,8.0,91,0.00,,,0.00,weatherlink.com 1.10,2013-12-04 15:30:00,
2013-12-04 07:45:00,19.2,17.0,30.39,NE,36,5.0,7.0,91,0.00,,,0.00,weatherlink.com 1.10,2013-12-04 15:45:00,
2013-12-04 08:00:00,19.4,17.0,30.39,NE,53,5.0,7.0,91,0.00,,,0.00,weatherlink.com 1.10,2013-12-04 16:00:00,
2013-12-04 08:15:00,20.1,18.0,30.39,NE,39,4.0,7.0,91,0.00,,,0.00,weatherlink.com 1.10,2013-12-04 16:15:00,
2013-12-04 08:30:00,21.3,19.0,30.40,NE,38,4.0,7.0,90,0.00,,,0.00,weatherlink.com 1.10,2013-12-04 16:30:00,
2013-12-04 08:45:00,22.1,20.0,30.40,NE,47,3.0,6.0,90,0.00,,,0.00,weatherlink.com 1.10,2013-12-04 16:45:00,
2013-12-04 09:00:00,22.7,20.0,30.41,NE,51,2.0,5.0,89,0.00,,,0.00,weatherlink.com 1.10,2013-12-04 17:00:00,
2013-12-04 09:15:00,24.3,21.0,30.41,NE,55,0.0,3.0,88,0.00,,,0.00,weatherlink.com 1.10,2013-12-04 17:15:00,
2013-12-04 09:30:00,26.8,22.0,30.41,ENE,74,0.0,2.0,83,0.00,,,0.00,weatherlink.com 1.10,2013-12-04 17:30:00,
2013-12-04 09:45:00,28.8,24.0,30.41,ENE,74,1.0,2.0,83,0.00,,,0.00,weatherlink.com 1.10,2013-12-04 17:45:00,
2013-12-04 10:00:00,30.7,26.0,30.41,SSE,163,2.0,5.0,81,0.00,,,0.00,weatherlink.com 1.10,2013-12-04 18:00:00,
2013-12-04 10:15:00,32.8,26.0,30.41,South,188,5.0,5.0,77,0.00,,,0.00,weatherlink.com 1.10,2013-12-04 18:15:00,
2013-12-04 10:30:00,33.5,27.0,30.41,South,187,5.0,6.0,78,0.00,,,0.00,weatherlink.com 1.10,2013-12-04 18:30:00,
2013-12-04 10:45:00,34.5,28.0,30.41,South,188,4.0,8.0,76,0.00,,,0.00,weatherlink.com 1.10,2013-12-04 18:45:00,
2013-12-04 11:00:00,34.1,26.0,30.41,South,190,4.0,7.0,72,0.00,,,0.00,weatherlink.com 1.10,2013-12-04 19:00:00,
2013-12-04 11:15:00,34.1,25.0,30.40,SSE,162,3.0,9.0,68,0.00,,,0.00,weatherlink.com 1.10,2013-12-04 19:15:00,
2013-12-04 11:30:00,32.0,22.0,30.40,SE,144,7.0,8.0,67,0.00,,,0.00,weatherlink.com 1.10,2013-12-04 19:30:00,
2013-12-04 11:45:00,35.5,22.0,30.39,South,180,5.0,8.0,59,0.00,,,0.00,weatherlink.com 1.10,2013-12-04 19:45:00,
2013-12-04 12:00:00,37.8,24.0,30.39,South,172,5.0,10.0,58,0.00,,,0.00,weatherlink.com 1.10,2013-12-04 20:00:00,
2013-12-04 12:30:00,38.2,20.0,30.38,South,186,3.0,9.0,49,0.00,,,0.00,weatherlink.com 1.10,2013-12-04 20:30:00,
2013-12-04 12:46:00,34.3,15.0,30.38,South,169,4.0,9.0,45,0.00,,,0.00,weatherlink.com 1.10,2013-12-04 20:46:00,
2013-12-04 13:01:00,35.4,18.0,30.38,South,174,4.0,9.0,49,0.00,,,0.00,weatherlink.com 1.10,2013-12-04 21:01:00,
2013-12-04 13:16:00,35.0,15.0,30.38,SSE,159,6.0,10.0,45,0.00,,,0.00,weatherlink.com 1.10,2013-12-04 21:16:00,
2013-12-04 13:31:00,38.8,21.0,30.37,South,183,7.0,9.0,50,0.00,,,0.00,weatherlink.com 1.10,2013-12-04 21:31:00,
2013-12-04 13:46:00,40.5,23.0,30.36,South,179,7.0,9.0,51,0.00,,,0.00,weatherlink.com 1.10,2013-12-04 21:46:00,
2013-12-04 14:01:00,39.2,24.0,30.36,South,183,5.0,9.0,54,0.00,,,0.00,weatherlink.com 1.10,2013-12-04 22:01:00,
2013-12-04 14:16:00,39.2,21.0,30.36,South,189,4.0,7.0,49,0.00,,,0.00,weatherlink.com 1.10,2013-12-04 22:16:00,
2013-12-04 14:31:00,38.4,22.0,30.36,South,178,8.0,10.0,51,0.00,,,0.00,weatherlink.com 1.10,2013-12-04 22:31:00,
2013-12-04 14:46:00,37.6,19.0,30.36,South,183,4.0,8.0,48,0.00,,,0.00,weatherlink.com 1.10,2013-12-04 22:46:00,
2013-12-04 15:01:00,37.9,20.0,30.36,South,190,4.0,7.0,48,0.00,,,0.00,weatherlink.com 1.10,2013-12-04 23:01:00,
2013-12-04 15:16:00,35.1,17.0,30.36,South,172,3.0,8.0,48,0.00,,,0.00,weatherlink.com 1.10,2013-12-04 23:16:00,
2013-12-04 15:31:00,34.6,17.0,30.36,SE,130,3.0,8.0,49,0.00,,,0.00,weatherlink.com 1.10,2013-12-04 23:31:00,
2013-12-04 15:46:00,35.1,18.0,30.36,South,180,5.0,9.0,51,0.00,,,0.00,weatherlink.com 1.10,2013-12-04 23:46:00,
2013-12-04 16:01:00,33.2,17.0,30.36,South,174,7.0,8.0,51,0.00,,,0.00,weatherlink.com 1.10,2013-12-05 00:01:00,
2013-12-04 16:16:00,32.0,16.0,30.36,SSE,167,3.0,8.0,51,0.00,,,0.00,weatherlink.com 1.10,2013-12-05 00:16:00,
2013-12-04 16:31:00,31.5,16.0,30.36,South,190,4.0,8.0,53,0.00,,,0.00,weatherlink.com 1.10,2013-12-05 00:31:00,
2013-12-04 16:46:00,31.3,15.0,30.36,South,188,3.0,7.0,52,0.00,,,0.00,weatherlink.com 1.10,2013-12-05 00:46:00,
2013-12-04 17:01:00,30.2,15.0,30.37,South,170,4.0,5.0,54,0.00,,,0.00,weatherlink.com 1.10,2013-12-05 01:01:00,
2013-12-04 17:16:00,29.7,16.0,30.37,SE,133,1.0,5.0,56,0.00,,,0.00,weatherlink.com 1.10,2013-12-05 01:16:00,
2013-12-04 17:31:00,27.3,16.0,30.37,NE,41,4.0,5.0,63,0.00,,,0.00,weatherlink.com 1.10,2013-12-05 01:31:00,
2013-12-04 17:46:00,26.2,16.0,30.37,NE,49,5.0,7.0,66,0.00,,,0.00,weatherlink.com 1.10,2013-12-05 01:46:00,
2013-12-04 18:01:00,25.7,16.0,30.38,ENE,67,3.0,7.0,68,0.00,,,0.00,weatherlink.com 1.10,2013-12-05 02:01:00,
2013-12-04 18:16:00,25.2,17.0,30.38,NE,50,8.0,9.0,72,0.00,,,0.00,weatherlink.com 1.10,2013-12-05 02:16:00,
2013-12-04 18:31:00,25.2,17.0,30.38,NE,38,7.0,9.0,72,0.00,,,0.00,weatherlink.com 1.10,2013-12-05 02:31:00,
2013-12-04 18:46:00,24.7,18.0,30.38,NE,38,8.0,10.0,75,0.00,,,0.00,weatherlink.com 1.10,2013-12-05 02:46:00,
2013-12-04 19:01:00,24.2,17.0,30.38,NNE,28,6.0,8.0,74,0.00,,,0.00,weatherlink.com 1.10,2013-12-05 03:01:00,
2013-12-04 19:16:00,23.6,17.0,30.38,NE,34,7.0,8.0,75,0.00,,,0.00,weatherlink.com 1.10,2013-12-05 03:16:00,
2013-12-04 19:31:00,23.5,17.0,30.39,NE,39,6.0,8.0,77,0.00,,,0.00,weatherlink.com 1.10,2013-12-05 03:31:00,
2013-12-04 19:46:00,23.2,17.0,30.39,NE,43,6.0,8.0,77,0.00,,,0.00,weatherlink.com 1.10,2013-12-05 03:46:00,
2013-12-04 20:01:00,22.7,17.0,30.39,NE,45,5.0,8.0,79,0.00,,,0.00,weatherlink.com 1.10,2013-12-05 04:01:00,
2013-12-04 20:16:00,22.7,17.0,30.39,NE,45,7.0,9.0,80,0.00,,,0.00,weatherlink.com 1.10,2013-12-05 04:16:00,
2013-12-04 20:31:00,22.5,17.0,30.39,NE,43,6.0,7.0,80,0.00,,,0.00,weatherlink.com 1.10,2013-12-05 04:31:00,
2013-12-04 20:46:00,22.0,17.0,30.40,NE,43,7.0,9.0,81,0.00,,,0.00,weatherlink.com 1.10,2013-12-05 04:46:00,
2013-12-04 21:01:00,22.0,17.0,30.40,NE,39,7.0,8.0,81,0.00,,,0.00,weatherlink.com 1.10,2013-12-05 05:01:00,
2013-12-04 21:16:00,21.8,17.0,30.40,NE,42,6.0,8.0,81,0.00,,,0.00,weatherlink.com 1.10,2013-12-05 05:16:00,
2013-12-04 21:31:00,21.5,17.0,30.40,NE,40,6.0,7.0,82,0.00,,,0.00,weatherlink.com 1.10,2013-12-05 05:31:00,
2013-12-04 21:46:00,21.5,17.0,30.40,NE,43,6.0,7.0,81,0.00,,,0.00,weatherlink.com 1.10,2013-12-05 05:46:00,
2013-12-04 22:01:00,21.3,16.0,30.40,NE,41,6.0,8.0,81,0.00,,,0.00,weatherlink.com 1.10,2013-12-05 06:01:00,
2013-12-04 22:16:00,21.5,16.0,30.40,NE,41,8.0,9.0,80,0.00,,,0.00,weatherlink.com 1.10,2013-12-05 06:16:00,
2013-12-04 22:31:00,21.4,16.0,30.40,NE,43,8.0,8.0,79,0.00,,,0.00,weatherlink.com 1.10,2013-12-05 06:31:00,
2013-12-04 22:46:00,21.4,16.0,30.40,NNE,31,5.0,9.0,80,0.00,,,0.00,weatherlink.com 1.10,2013-12-05 06:46:00,
2013-12-04 23:01:00,20.8,16.0,30.40,NE,43,4.0,9.0,80,0.00,,,0.00,weatherlink.com 1.10,2013-12-05 07:01:00,
2013-12-04 23:16:00,20.7,16.0,30.40,NE,45,3.0,8.0,81,0.00,,,0.00,weatherlink.com 1.10,2013-12-05 07:16:00,
2013-12-04 23:31:00,21.6,16.0,30.41,NE,48,6.0,8.0,78,0.00,,,0.00,weatherlink.com 1.10,2013-12-05 07:31:00,
2013-12-04 23:46:00,20.4,15.0,30.40,NE,43,3.0,9.0,81,0.00,,,0.00,weatherlink.com 1.10,2013-12-05 07:46:00,